Time;durP1;ratioP1;P1;durP2;ratioP2;P2;SDS_P1;SDS_P2;PMS_P1;PMS_P2;Temp;Humidity;BMP_temperature;BMP_pressure;BME280_temperature;BME280_humidity;BME280_pressure;Samples;Min_cycle;Max_cycle;Signal;HPM_P1;HPM_P2
2023/06/05 00:02:26;;;;;;;0.50;0.50;;;22.40;58.00;;;22.83;41.29;95165.16;5097902;28;20184;-36
2023/06/05 00:04:53;;;;;;;0.30;0.30;;;22.40;58.00;;;22.83;41.40;95162.50;5097886;28;20200;-37
2023/06/05 00:07:21;;;;;;;0.30;0.30;;;22.40;58.00;;;22.82;41.78;95174.25;5080483;28;20217;-36
2023/06/05 00:09:48;;;;;;;0.35;0.35;;;22.40;58.00;;;22.81;41.58;95155.81;5098015;28;20284;-36
2023/06/05 00:12:15;;;;;;;0.40;0.40;;;22.30;57.90;;;22.80;41.82;95164.91;5097991;28;20196;-36
2023/06/05 00:14:43;;;;;;;0.30;0.30;;;22.40;58.10;;;22.79;41.45;95168.63;5097655;28;20652;-36
2023/06/05 00:17:11;;;;;;;0.40;0.40;;;22.30;58.00;;;22.77;41.35;95165.44;5097614;28;20204;-36
2023/06/05 00:19:38;;;;;;;0.30;0.30;;;22.30;58.00;;;22.77;41.29;95165.44;5097545;28;20507;-36
2023/06/05 00:22:05;;;;;;;0.40;0.40;;;22.40;58.10;;;22.75;41.72;95171.03;5097385;28;20631;-37
2023/06/05 00:24:32;;;;;;;0.40;0.40;;;22.30;58.00;;;22.74;41.73;95166.78;5097765;28;20197;-37
2023/06/05 00:26:59;;;;;;;0.30;0.30;;;22.40;58.20;;;22.74;41.91;95165.94;5097706;28;20207;-36
2023/06/05 00:29:26;;;;;;;0.40;0.40;;;22.40;58.30;;;22.72;41.70;95166.22;5096319;28;20284;-37
2023/06/05 00:31:53;;;;;;;0.40;0.40;;;22.30;58.10;;;22.70;41.42;95165.66;5096364;28;20202;-36
2023/06/05 00:34:20;;;;;;;0.50;0.50;;;22.30;58.30;;;22.64;41.77;95159.50;5097792;28;20216;-36
2023/06/05 00:36:50;;;;;;;0.40;0.40;;;22.30;58.20;;;22.68;41.77;95173.16;5097254;28;20235;-36
2023/06/05 00:39:18;;;;;;;0.38;0.38;;;22.30;58.30;;;22.66;41.69;95168.06;5113142;28;20200;-37
2023/06/05 00:41:46;;;;;;;0.40;0.40;;;22.30;58.40;;;22.66;41.93;95161.91;5097155;28;20192;-37
2023/06/05 00:44:13;;;;;;;0.30;0.30;;;22.30;58.30;;;22.65;41.69;95165.66;5097085;28;20227;-39
2023/06/05 00:46:41;;;;;;;0.40;0.40;;;22.20;58.30;;;22.64;41.92;95166.72;5097017;28;20215;-37
2023/06/05 00:49:08;;;;;;;0.32;0.32;;;22.20;58.40;;;22.62;42.09;95163.50;5096153;28;20194;-37
2023/06/05 00:51:36;;;;;;;0.32;0.32;;;22.20;58.30;;;22.61;41.89;95156.56;5078899;28;20280;-37
2023/06/05 00:54:05;;;;;;;0.30;0.30;;;22.20;58.40;;;22.60;41.90;95161.09;5097043;28;20218;-37
2023/06/05 00:56:35;;;;;;;0.50;0.50;;;22.20;58.40;;;22.59;41.63;95150.66;5078950;28;20291;-37
2023/06/05 00:59:03;;;;;;;0.40;0.40;;;22.20;58.50;;;22.57;41.70;95150.94;5096830;28;20198;-36
2023/06/05 01:01:32;;;;;;;0.50;0.50;;;22.20;58.40;;;22.57;41.79;95156.28;5096543;28;20243;-36
2023/06/05 01:04:00;;;;;;;0.50;0.50;;;22.20;58.50;;;22.53;41.97;95153.31;5078852;28;20244;-38
2023/06/05 01:06:34;;;;;;;0.30;0.30;;;22.20;58.50;;;22.53;42.13;95152.50;5078878;28;20208;-39
2023/06/05 01:09:02;;;;;;;0.30;0.30;;;22.20;58.60;;;22.52;42.16;95156.25;5078823;28;20195;-37
2023/06/05 01:12:04;;;;;;;0.43;0.43;;;22.10;58.40;;;22.48;42.13;95147.16;5078826;28;20571;-38
2023/06/05 01:14:34;;;;;;;0.40;0.40;;;22.20;58.80;;;22.46;42.07;95152.75;5112479;28;20287;-37
2023/06/05 01:17:03;;;;;;;0.40;0.40;;;22.10;58.50;;;22.47;42.31;95142.84;5078632;28;20222;-37
2023/06/05 01:19:32;;;;;;;0.35;0.35;;;22.10;58.60;;;22.44;41.93;95140.72;5096407;28;20290;-37
2023/06/05 01:22:00;;;;;;;0.55;0.55;;;22.10;58.50;;;22.44;41.87;95148.75;5096314;28;20517;-37
2023/06/05 01:24:28;;;;;;;0.40;0.40;;;22.10;58.50;;;22.44;42.29;95146.06;5096606;28;20206;-37
2023/06/05 01:27:00;;;;;;;0.30;0.30;;;22.10;58.60;;;22.43;42.06;95144.47;5095702;28;20210;-38
2023/06/05 01:30:24;;;;;;;0.40;0.40;;;22.10;58.60;;;22.41;41.94;95154.59;5095324;28;20202;-37
2023/06/05 01:33:12;;;;;;;0.40;0.40;;;22.00;58.70;;;22.35;42.13;95141.19;5034725;28;20268;-38
2023/06/05 01:35:41;;;;;;;0.40;0.40;;;22.00;58.70;;;22.34;42.36;95144.91;5077581;28;20618;-37
2023/06/05 01:38:11;;;;;;;0.30;0.30;;;22.00;58.70;;;22.34;42.30;95147.59;5078484;28;20198;-37
2023/06/05 01:40:39;;;;;;;0.40;0.40;;;22.00;58.70;;;22.34;42.31;95136.91;5094925;28;20260;-38
2023/06/05 01:43:08;;;;;;;0.40;0.40;;;22.00;58.70;;;22.32;42.41;95138.22;5095128;28;20206;-38
2023/06/05 01:45:40;;;;;;;0.40;0.40;;;22.00;58.80;;;22.31;42.33;95141.97;5095661;28;20218;-37
2023/06/05 01:48:10;;;;;;;0.40;0.40;;;22.00;58.80;;;22.30;42.60;95140.34;5095354;28;20204;-36
2023/06/05 01:50:38;;;;;;;0.40;0.40;;;22.00;58.90;;;22.30;42.22;95140.34;5077828;28;20595;-36
2023/06/05 01:53:07;;;;;;;0.50;0.50;;;21.90;58.80;;;22.29;42.23;95138.72;5061711;28;20230;-36
2023/06/05 01:55:38;;;;;;;0.40;0.40;;;21.90;58.80;;;22.29;42.38;95139.56;5095703;28;20227;-36
2023/06/05 01:58:06;;;;;;;0.30;0.30;;;21.90;58.80;;;22.27;42.57;95138.22;5077948;28;20204;-37
2023/06/05 02:00:35;;;;;;;0.30;0.30;;;21.90;59.00;;;22.26;42.77;95140.06;5094588;28;20248;-36
2023/06/05 02:03:03;;;;;;;0.40;0.40;;;21.90;59.00;;;22.26;42.86;95145.41;5078048;28;20280;-36
2023/06/05 02:05:33;;;;;;;0.35;0.35;;;21.90;59.00;;;22.24;42.44;95139.53;5095594;28;20209;-36
2023/06/05 02:08:05;;;;;;;0.30;0.30;;;21.90;59.00;;;22.25;42.92;95145.69;5094564;28;20218;-36
2023/06/05 02:10:33;;;;;;;0.35;0.35;;;21.90;60.20;;;22.23;42.52;95138.72;5094418;28;20226;-36
2023/06/05 02:13:02;;;;;;;0.35;0.35;;;21.90;59.10;;;22.23;42.47;95146.72;5094496;28;20606;-37
2023/06/05 02:15:32;;;;;;;0.40;0.40;;;21.90;59.10;;;22.23;42.26;95145.94;5061163;28;20223;-37
2023/06/05 02:18:02;;;;;;;0.40;0.40;;;21.90;59.20;;;22.21;42.48;95140.84;5095354;28;20232;-36
2023/06/05 02:20:32;;;;;;;0.40;0.40;;;21.90;60.30;;;22.20;42.74;95144.59;5095462;28;20198;-36
2023/06/05 02:22:59;;;;;;;0.40;0.40;;;21.80;59.20;;;22.20;42.67;95138.44;5111307;28;20218;-36
2023/06/05 02:25:26;;;;;;;0.30;0.30;;;21.80;59.20;;;22.20;42.87;95133.91;5111382;28;20260;-37
2023/06/05 02:27:54;;;;;;;0.30;0.30;;;21.80;59.20;;;22.19;43.02;95139.50;5094334;28;20594;-37
2023/06/05 02:30:22;;;;;;;0.50;0.50;;;21.80;59.10;;;22.18;42.58;95136.03;5094090;28;20296;-37
2023/06/05 02:32:56;;;;;;;0.38;0.38;;;21.80;59.10;;;22.18;43.19;95132.53;5094222;28;20212;-37
2023/06/05 02:35:24;;;;;;;0.40;0.40;;;21.80;59.30;;;22.17;42.76;95133.63;5095375;28;20216;-37
2023/06/05 02:37:51;;;;;;;0.50;0.50;;;21.80;59.30;;;22.15;42.78;95131.19;5095188;28;20207;-38
2023/06/05 02:40:19;;;;;;;0.38;0.38;;;21.80;59.30;;;22.16;42.64;95132.00;5094023;28;20713;-37
2023/06/05 02:42:46;;;;;;;0.43;0.43;;;21.80;59.30;;;22.14;42.79;95142.97;5094402;28;20202;-37
2023/06/05 02:45:14;;;;;;;0.30;0.30;;;21.80;59.30;;;22.14;42.92;95147.50;5095337;28;20276;-38
2023/06/05 02:47:42;;;;;;;0.40;0.40;;;21.80;59.30;;;22.12;42.78;95144.25;5094957;28;20687;-37
2023/06/05 02:50:09;;;;;;;0.40;0.40;;;21.80;60.40;;;22.12;43.08;95150.44;5093926;28;20198;-37
2023/06/05 02:52:41;;;;;;;0.30;0.30;;;21.80;59.40;;;22.11;43.29;95145.34;5077071;28;20560;-37
2023/06/05 02:55:14;;;;;;;0.50;0.50;;;21.80;59.40;;;22.09;43.21;95144.78;5094834;28;20242;-37
2023/06/05 02:57:43;;;;;;;0.35;0.35;;;21.70;59.30;;;22.09;43.03;95148.25;5110980;28;20203;-37
2023/06/05 03:00:16;;;;;;;0.38;0.38;;;21.80;60.50;;;22.07;42.72;95140.50;5077436;28;20209;-37
2023/06/05 03:02:48;;;;;;;0.38;0.38;;;21.70;59.40;;;22.06;43.13;95140.78;5077448;28;20641;-37
2023/06/05 03:05:24;;;;;;;0.38;0.38;;;21.70;59.40;;;22.06;43.21;95144.25;5093969;28;20603;-37
2023/06/05 03:07:54;;;;;;;0.30;0.30;;;21.70;59.40;;;22.04;43.15;95137.56;5077115;28;20205;-38
2023/06/05 03:10:22;;;;;;;0.45;0.45;;;21.70;59.50;;;22.03;43.20;95142.09;5110628;28;20232;-37
2023/06/05 03:12:50;;;;;;;0.30;0.30;;;21.70;59.60;;;22.02;43.34;95145.84;5110776;28;20201;-37
2023/06/05 03:15:18;;;;;;;0.30;0.30;;;21.70;59.60;;;22.01;42.86;95138.88;5110708;28;20599;-39
2023/06/05 03:17:48;;;;;;;0.32;0.32;;;21.70;59.60;;;22.01;42.77;95128.19;5094660;28;20289;-37
2023/06/05 03:20:20;;;;;;;0.40;0.40;;;21.70;59.70;;;22.01;43.32;95132.75;5076923;28;20278;-41
2023/06/05 03:22:47;;;;;;;0.40;0.40;;;21.70;59.70;;;21.98;43.37;95128.69;5094579;28;20283;-38
2023/06/05 03:25:14;;;;;;;0.40;0.40;;;21.70;59.60;;;21.98;43.45;95133.25;5094989;28;20218;-38
2023/06/05 03:27:46;;;;;;;0.40;0.40;;;21.70;59.70;;;21.98;43.15;95126.03;5076899;28;20203;-38
2023/06/05 03:30:16;;;;;;;0.30;0.30;;;21.70;59.70;;;21.97;43.39;95128.97;5077025;28;20536;-38
2023/06/05 03:32:47;;;;;;;0.43;0.43;;;21.70;59.70;;;21.97;43.50;95127.13;5076841;28;20211;-40
2023/06/05 03:35:17;;;;;;;0.43;0.43;;;21.70;59.80;;;21.96;43.20;95130.84;5094924;28;20545;-39
2023/06/05 03:37:44;;;;;;;0.40;0.40;;;21.60;59.70;;;21.96;43.40;95127.34;5093624;28;20243;-37
2023/06/05 03:40:12;;;;;;;0.40;0.40;;;21.60;59.80;;;21.95;43.28;95125.75;5094539;28;20611;-37
2023/06/05 03:42:40;;;;;;;0.38;0.38;;;21.60;59.80;;;21.94;43.58;95130.28;5076566;28;20227;-37
2023/06/05 03:45:08;;;;;;;0.30;0.30;;;21.60;59.80;;;21.93;43.51;95131.34;5094557;28;20270;-37
2023/06/05 03:47:37;;;;;;;0.40;0.40;;;21.60;59.80;;;21.92;43.17;95129.72;5076662;28;20522;-37
2023/06/05 03:50:08;;;;;;;0.32;0.32;;;21.60;59.90;;;21.93;43.29;95133.22;5096060;28;20256;-37
2023/06/05 03:52:39;;;;;;;0.30;0.30;;;21.60;59.90;;;21.91;43.62;95128.94;5080047;28;20233;-37
2023/06/05 03:55:09;;;;;;;0.30;0.30;;;21.60;60.90;;;21.91;43.40;95133.50;5114122;28;20287;-37
2023/06/05 03:57:41;;;;;;;0.40;0.40;;;21.60;59.90;;;21.89;43.35;95131.06;5080193;28;20199;-37
2023/06/05 04:00:10;;;;;;;0.40;0.40;;;21.60;60.00;;;21.90;43.76;95139.88;5114430;28;20293;-38
2023/06/05 04:02:50;;;;;;;0.40;0.40;;;21.60;60.00;;;21.88;43.75;95131.31;5079977;28;20653;-37
2023/06/05 04:05:17;;;;;;;0.30;0.30;;;21.60;60.00;;;21.88;43.44;95125.97;5080054;28;20212;-37
2023/06/05 04:07:44;;;;;;;0.40;0.40;;;21.60;60.00;;;21.87;43.38;95135.88;5097782;28;20190;-37
2023/06/05 04:10:12;;;;;;;0.35;0.35;;;21.60;60.00;;;21.87;43.35;95132.38;5096847;28;20267;-37
2023/06/05 04:12:39;;;;;;;0.30;0.30;;;21.60;60.10;;;21.86;43.75;95139.59;5097552;28;20263;-37
2023/06/05 04:15:09;;;;;;;0.30;0.30;;;21.60;60.10;;;21.87;43.85;95141.22;5096870;28;20564;-37
2023/06/05 04:17:38;;;;;;;0.40;0.40;;;21.60;60.10;;;21.86;43.59;95131.59;5097890;28;20207;-37
2023/06/05 04:20:14;;;;;;;0.30;0.30;;;21.60;60.10;;;21.85;43.56;95132.66;5097004;28;20629;-37
2023/06/05 04:22:43;;;;;;;0.35;0.35;;;21.60;60.20;;;21.85;43.85;95142.50;5079578;28;20194;-38
2023/06/05 04:25:12;;;;;;;0.40;0.40;;;21.60;60.10;;;21.85;43.50;95145.19;5098041;28;20200;-40
2023/06/05 04:27:42;;;;;;;0.40;0.40;;;21.50;60.00;;;21.85;43.63;95139.84;5079632;28;20199;-37
2023/06/05 04:30:12;;;;;;;0.40;0.40;;;21.50;60.10;;;21.84;44.11;95139.03;5113499;28;20206;-37
2023/06/05 04:32:41;;;;;;;0.30;0.30;;;21.50;60.10;;;21.84;43.89;95132.91;5113324;28;20221;-37
2023/06/05 04:35:12;;;;;;;0.30;0.30;;;21.50;60.10;;;21.84;43.44;95133.69;5079375;28;20265;-37
2023/06/05 04:37:39;;;;;;;0.30;0.30;;;21.50;60.10;;;21.84;44.02;95139.03;5096365;28;20194;-37
2023/06/05 04:40:09;;;;;;;0.40;0.40;;;21.50;60.10;;;21.83;43.63;95128.63;5079775;28;20194;-39
2023/06/05 04:42:38;;;;;;;0.40;0.40;;;21.50;60.10;;;21.84;43.68;95132.91;5113110;28;20526;-37
2023/06/05 04:45:08;;;;;;;0.45;0.45;;;21.50;60.10;;;21.84;43.67;95135.56;5079286;28;20198;-37
2023/06/05 04:47:40;;;;;;;0.40;0.40;;;21.50;60.10;;;21.83;43.62;95136.63;5080495;28;20204;-37
2023/06/05 04:50:08;;;;;;;0.38;0.38;;;21.50;60.10;;;21.83;43.74;95134.75;5096060;28;20277;-37
2023/06/05 04:52:39;;;;;;;0.40;0.40;;;21.50;60.20;;;21.82;44.04;95137.69;5078802;28;20250;-38
2023/06/05 04:55:08;;;;;;;0.40;0.40;;;21.50;60.20;;;21.81;43.85;95130.75;5079614;28;20232;-38
2023/06/05 04:57:35;;;;;;;0.45;0.45;;;21.50;60.20;;;21.81;44.00;95136.88;5097142;28;20248;-37
2023/06/05 05:00:05;;;;;;;0.40;0.40;;;21.50;60.20;;;21.81;44.27;95138.75;5113137;28;20509;-37
2023/06/05 05:02:32;;;;;;;0.40;0.40;;;21.50;60.20;;;21.80;44.18;95132.63;5112658;28;20584;-38
2023/06/05 05:05:01;;;;;;;0.32;0.32;;;21.50;60.20;;;21.80;43.74;95131.78;5096921;28;20239;-39
2023/06/05 05:07:28;;;;;;;0.40;0.40;;;21.50;60.30;;;21.79;43.89;95128.34;5095743;28;20207;-38
2023/06/05 05:09:56;;;;;;;0.40;0.40;;;21.50;60.30;;;21.79;44.03;95135.53;5078843;28;20281;-37
2023/06/05 05:12:23;;;;;;;0.40;0.40;;;21.50;60.30;;;21.79;44.16;95135.53;5095509;28;20212;-38
2023/06/05 05:14:51;;;;;;;0.30;0.30;;;21.50;60.40;;;21.77;43.89;95135.78;5078597;28;20228;-40
2023/06/05 05:17:19;;;;;;;0.40;0.40;;;21.50;60.40;;;21.78;44.35;95133.94;5078591;28;20200;-38
2023/06/05 05:19:47;;;;;;;0.40;0.40;;;21.50;60.40;;;21.77;44.37;95137.66;5112462;28;20699;-38
2023/06/05 05:22:14;;;;;;;0.40;0.40;;;21.50;60.30;;;21.77;44.15;95137.66;5078373;28;20194;-39
2023/06/05 05:24:41;;;;;;;0.50;0.50;;;21.50;60.40;;;21.77;44.25;95129.66;5096567;28;20202;-39
2023/06/05 05:27:08;;;;;;;0.45;0.45;;;21.50;60.30;;;21.76;43.89;95136.84;5112334;28;20199;-37
2023/06/05 05:29:36;;;;;;;0.30;0.30;;;21.50;60.40;;;21.76;44.41;95134.19;5096270;28;20188;-37
2023/06/05 05:32:05;;;;;;;0.40;0.40;;;21.50;60.50;;;21.75;43.94;95130.72;5095058;28;20522;-37
2023/06/05 05:34:33;;;;;;;0.40;0.40;;;21.50;60.50;;;21.75;44.53;95132.56;5096083;28;20195;-36
2023/06/05 05:37:01;;;;;;;0.40;0.40;;;21.50;61.40;;;21.74;44.37;95125.63;5095567;28;20593;-36
2023/06/05 05:39:28;;;;;;;0.40;0.40;;;21.50;60.50;;;21.74;43.99;95128.31;5078296;28;20196;-36
2023/06/05 05:41:56;;;;;;;0.40;0.40;;;21.50;60.50;;;21.73;44.00;95132.03;5095918;28;20191;-36
2023/06/05 05:44:23;;;;;;;0.40;0.40;;;21.50;60.50;;;21.74;43.80;95125.63;5112025;28;20201;-36
2023/06/05 05:46:50;;;;;;;0.30;0.30;;;21.50;60.50;;;21.74;44.19;95137.09;5095919;28;20255;-36
2023/06/05 05:49:17;;;;;;;0.40;0.40;;;21.50;60.60;;;21.75;44.59;95135.22;5095878;28;20200;-36
2023/06/05 05:51:45;;;;;;;0.40;0.40;;;21.50;60.50;;;21.74;44.14;95134.44;5095568;28;20235;-36
2023/06/05 05:54:12;;;;;;;0.40;0.40;;;21.50;60.60;;;21.75;44.44;95138.72;5095794;28;20633;-36
2023/06/05 05:56:39;;;;;;;0.50;0.50;;;21.40;60.50;;;21.74;44.19;95139.78;5095691;28;20219;-36
2023/06/05 05:59:06;;;;;;;0.35;0.35;;;21.50;60.70;;;21.74;44.49;95139.78;5095734;28;20203;-36
2023/06/05 06:01:33;;;;;;;0.40;0.40;;;21.50;60.70;;;21.75;44.46;95136.06;5095567;28;20631;-36
2023/06/05 06:04:00;;;;;;;0.43;0.43;;;21.50;60.70;;;21.74;44.48;95130.97;5077953;28;20274;-36
2023/06/05 06:06:28;;;;;;;0.50;0.50;;;21.50;60.70;;;21.74;44.69;95130.97;5095570;28;20191;-36
2023/06/05 06:08:55;;;;;;;0.40;0.40;;;21.50;60.70;;;21.74;44.52;95134.44;5095546;28;20209;-36
2023/06/05 06:11:22;;;;;;;0.40;0.40;;;21.50;60.70;;;21.73;44.83;95135.50;5095208;28;20562;-36
2023/06/05 06:13:50;;;;;;;0.40;0.40;;;21.50;60.70;;;21.74;44.25;95133.66;5095532;28;20253;-36
2023/06/05 06:16:17;;;;;;;0.30;0.30;;;21.40;60.70;;;21.74;44.48;95142.44;5095945;28;20215;-36
2023/06/05 06:18:44;;;;;;;0.50;0.50;;;21.40;60.70;;;21.75;44.62;95137.91;5077908;28;20286;-40
2023/06/05 06:21:12;;;;;;;0.40;0.40;;;21.50;60.80;;;21.74;44.52;95139.78;5095353;28;20192;-36
2023/06/05 06:23:39;;;;;;;0.30;0.30;;;21.50;60.90;;;21.74;44.42;95139.78;5095279;28;20586;-39
2023/06/05 06:26:07;;;;;;;0.55;0.55;;;21.50;60.90;;;21.74;44.74;95139.00;5095627;28;20199;-37
2023/06/05 06:28:35;;;;;;;0.32;0.32;;;21.50;60.90;;;21.74;44.95;95137.09;5095524;28;20196;-36
2023/06/05 06:31:03;;;;;;;0.30;0.30;;;21.50;61.00;;;21.73;44.81;95140.03;5095155;28;20674;-36
2023/06/05 06:33:32;;;;;;;0.40;0.40;;;21.50;60.90;;;21.74;44.60;95142.44;5077557;28;20276;-36
2023/06/05 06:36:00;;;;;;;0.40;0.40;;;21.50;61.00;;;21.75;44.85;95141.41;5095624;28;20245;-36
2023/06/05 06:38:30;;;;;;;0.40;0.40;;;21.50;61.00;;;21.75;44.68;95138.72;5095398;28;20186;-36
2023/06/05 06:40:59;;;;;;;0.50;0.50;;;21.50;61.10;;;21.75;45.13;95137.91;5095441;28;20183;-36
2023/06/05 06:43:26;;;;;;;0.40;0.40;;;21.50;61.10;;;21.77;44.77;95137.66;5094956;28;20248;-36
2023/06/05 06:46:05;;;;;;;0.30;0.30;;;21.50;61.10;;;21.77;45.09;95143.00;5095352;28;20501;-37
2023/06/05 06:48:33;;;;;;;0.30;0.30;;;21.50;61.10;;;21.76;44.78;95144.84;5095358;28;20207;-38
2023/06/05 06:51:02;;;;;;;0.40;0.40;;;21.50;61.10;;;21.79;44.91;95143.53;5094881;28;20629;-36
2023/06/05 06:53:29;;;;;;;0.40;0.40;;;21.50;61.20;;;21.79;45.26;95141.69;5095190;28;20256;-36
2023/06/05 06:55:57;;;;;;;0.30;0.30;;;21.50;61.20;;;21.80;45.14;95142.47;5094868;28;20646;-36
2023/06/05 06:58:24;;;;;;;0.40;0.40;;;21.50;61.20;;;21.80;45.26;95140.63;5095235;28;20220;-37
2023/06/05 07:00:51;;;;;;;0.40;0.40;;;21.50;61.30;;;21.80;45.30;95145.97;5094895;28;20222;-40
2023/06/05 07:03:18;;;;;;;0.30;0.30;;;21.50;61.30;;;21.81;45.20;95146.75;5094900;28;20191;-38
2023/06/05 07:05:45;;;;;;;0.40;0.40;;;21.50;61.30;;;21.81;45.33;95138.75;5094883;28;20212;-37
2023/06/05 07:08:12;;;;;;;0.40;0.40;;;21.50;61.30;;;21.80;44.90;95145.16;5094832;28;20199;-37
2023/06/05 07:10:40;;;;;;;0.38;0.38;;;21.50;61.30;;;21.82;45.30;95145.69;5094982;28;20278;-37
2023/06/05 07:13:07;;;;;;;0.40;0.40;;;21.50;62.20;;;21.81;45.27;95138.75;5095024;28;20637;-36
2023/06/05 07:15:34;;;;;;;0.40;0.40;;;21.50;61.40;;;21.80;45.25;95132.63;5094816;28;20300;-36
2023/06/05 07:18:02;;;;;;;0.40;0.40;;;21.50;61.30;;;21.80;45.31;95140.63;5095038;28;20203;-36
2023/06/05 07:20:31;;;;;;;0.40;0.40;;;21.50;61.30;;;21.82;45.16;95154.50;5094771;28;20207;-36
2023/06/05 07:22:59;;;;;;;0.40;0.40;;;21.50;61.30;;;21.82;45.11;95143.81;5094860;28;20246;-36
2023/06/05 07:25:27;;;;;;;0.40;0.40;;;21.50;61.40;;;21.82;45.22;95143.81;5098444;28;20253;-36
2023/06/05 07:27:54;;;;;;;0.40;0.40;;;21.50;61.40;;;21.81;45.39;95147.56;5099130;28;20595;-36
2023/06/05 07:30:22;;;;;;;0.30;0.30;;;21.50;61.40;;;21.83;45.38;95147.31;5098866;28;20254;-36
2023/06/05 07:32:49;;;;;;;0.35;0.35;;;21.50;61.50;;;21.83;45.55;95158.00;5098475;28;20199;-38
2023/06/05 07:35:16;;;;;;;0.40;0.40;;;21.50;61.40;;;21.83;45.72;95158.00;5098681;28;20537;-36
2023/06/05 07:37:43;;;;;;;0.40;0.40;;;21.50;61.50;;;21.83;45.27;95158.00;5098728;28;20205;-36
2023/06/05 07:40:11;;;;;;;0.40;0.40;;;21.50;61.50;;;21.82;45.50;95151.84;5098481;28;20190;-36
2023/06/05 07:42:38;;;;;;;0.40;0.40;;;21.50;61.50;;;21.83;45.30;95160.66;5099190;28;20278;-36
2023/06/05 07:45:06;;;;;;;0.30;0.30;;;21.50;61.50;;;21.84;45.13;95157.72;5098292;28;20186;-36
2023/06/05 07:47:33;;;;;;;0.40;0.40;;;21.50;61.50;;;21.84;45.22;95152.38;5098242;28;20505;-36
2023/06/05 07:50:06;;;;;;;0.40;0.40;;;21.50;61.50;;;21.85;45.50;95154.00;5098228;28;20194;-36
2023/06/05 07:52:33;;;;;;;0.40;0.40;;;21.50;61.60;;;21.85;45.35;95155.84;5097982;28;20242;-36
2023/06/05 07:55:00;;;;;;;0.35;0.35;;;21.50;61.60;;;21.85;45.25;95154.00;5097189;28;20621;-36
2023/06/05 07:57:28;;;;;;;0.30;0.30;;;21.60;61.70;;;21.85;45.76;95158.53;5098259;28;20230;-36
2023/06/05 07:59:55;;;;;;;0.30;0.30;;;21.60;61.70;;;21.87;45.49;95161.75;5098017;28;20641;-36
2023/06/05 08:02:23;;;;;;;0.40;0.40;;;21.60;61.80;;;21.85;45.63;95161.19;5097974;28;20200;-36
2023/06/05 08:04:51;;;;;;;0.40;0.40;;;21.60;61.70;;;21.85;45.22;95153.19;5097900;28;20203;-36
2023/06/05 08:07:18;;;;;;;0.40;0.40;;;21.50;61.70;;;21.85;45.83;95156.69;5080310;28;20200;-36
2023/06/05 08:09:45;;;;;;;0.40;0.40;;;21.60;61.80;;;21.86;45.53;95160.13;5098104;28;20251;-37
2023/06/05 08:12:12;;;;;;;0.45;0.45;;;21.50;61.70;;;21.84;45.29;95157.72;5097844;28;20310;-36
2023/06/05 08:14:40;;;;;;;0.30;0.30;;;21.60;61.80;;;21.86;45.41;95157.47;5097557;28;20195;-36
2023/06/05 08:17:07;;;;;;;0.40;0.40;;;21.60;61.90;;;21.86;45.65;95158.28;5097604;28;20666;-37
2023/06/05 08:19:35;;;;;;;0.40;0.40;;;21.60;61.90;;;21.85;45.91;95164.69;5097695;28;20192;-36
2023/06/05 08:22:04;;;;;;;0.45;0.45;;;21.60;61.90;;;21.87;45.98;95164.41;5080094;28;20234;-38
2023/06/05 08:24:31;;;;;;;0.40;0.40;;;21.50;61.80;;;21.87;45.78;95164.41;5097337;28;20565;-37
2023/06/05 08:26:59;;;;;;;0.40;0.40;;;21.60;61.90;;;21.86;45.50;95158.28;5097510;28;20190;-36
2023/06/05 08:29:27;;;;;;;0.40;0.40;;;21.60;61.90;;;21.86;46.05;95158.28;5097556;28;20200;-36
2023/06/05 08:31:55;;;;;;;0.40;0.40;;;21.50;61.80;;;21.87;45.52;95159.09;5097913;28;20203;-37
2023/06/05 08:34:25;;;;;;;0.30;0.30;;;21.60;62.00;;;21.85;45.63;95162.00;5096972;28;20194;-38
2023/06/05 08:36:52;;;;;;;0.40;0.40;;;21.60;62.00;;;21.86;45.85;95162.81;5097518;28;20231;-37
2023/06/05 08:39:20;;;;;;;0.35;0.35;;;21.60;62.10;;;21.85;45.68;95169.22;5097238;28;20190;-37
2023/06/05 08:41:51;;;;;;;0.30;0.30;;;21.60;62.10;;;21.86;45.77;95162.81;5097497;28;20195;-36
2023/06/05 08:44:19;;;;;;;0.40;0.40;;;21.60;62.20;;;21.85;45.70;95170.03;5097057;28;20267;-38
2023/06/05 08:46:48;;;;;;;0.40;0.40;;;21.60;62.10;;;21.86;45.65;95160.13;5097398;28;20202;-37
2023/06/05 08:49:20;;;;;;;0.40;0.40;;;21.60;62.20;;;21.86;45.83;95162.81;5079530;28;20202;-36
2023/06/05 08:51:52;;;;;;;0.30;0.30;;;21.50;62.20;;;21.87;46.14;95157.22;5097321;28;20257;-37
2023/06/05 08:54:20;;;;;;;0.43;0.43;;;21.60;62.20;;;21.86;46.25;95162.81;5096937;28;20189;-38
2023/06/05 08:56:49;;;;;;;0.40;0.40;;;21.60;62.20;;;21.86;45.82;95166.31;5079643;28;20719;-38
2023/06/05 08:59:18;;;;;;;0.43;0.43;;;21.50;63.00;;;21.86;45.85;95160.97;5097598;28;20214;-36
2023/06/05 09:01:47;;;;;;;0.40;0.40;;;21.60;62.20;;;21.86;46.16;95162.81;5096792;28;20210;-36
2023/06/05 09:04:14;;;;;;;0.40;0.40;;;21.60;62.30;;;21.86;46.21;95158.28;5096646;28;20202;-36
2023/06/05 09:06:53;;;;;;;0.40;0.40;;;21.60;62.20;;;21.87;45.90;95164.41;5096725;28;20279;-36
2023/06/05 09:09:21;;;;;;;0.30;0.30;;;21.50;62.20;;;21.85;46.10;95162.00;5096687;28;20189;-36
2023/06/05 09:12:03;;;;;;;0.40;0.40;;;21.50;62.20;;;21.85;46.04;95158.53;5096610;28;20208;-36
2023/06/05 09:14:31;;;;;;;0.30;0.30;;;21.60;62.30;;;21.87;46.03;95164.41;5079432;28;20179;-36
2023/06/05 09:17:00;;;;;;;0.30;0.30;;;21.50;62.20;;;21.88;46.27;95166.03;5096442;28;20210;-36
2023/06/05 09:19:39;;;;;;;0.40;0.40;;;21.60;62.40;;;21.88;46.34;95163.38;5096428;28;20259;-37
2023/06/05 09:22:10;;;;;;;0.35;0.35;;;21.60;62.50;;;21.88;46.57;95158.03;5097021;28;20277;-36
2023/06/05 09:24:40;;;;;;;0.30;0.30;;;21.60;62.50;;;21.88;46.43;95158.81;5096221;28;20195;-36
2023/06/05 09:27:10;;;;;;;0.40;0.40;;;21.60;62.50;;;21.90;45.99;95153.25;5079308;28;20194;-36
2023/06/05 09:29:40;;;;;;;0.50;0.50;;;21.60;63.40;;;21.92;46.25;95153.75;5096844;28;20594;-36
2023/06/05 09:32:20;;;;;;;0.35;0.35;;;21.60;62.40;;;21.90;46.02;95148.69;5096792;28;20198;-36
2023/06/05 09:35:05;;;;;;;0.30;0.30;;;21.60;62.50;;;21.91;46.45;95144.97;5096040;28;20202;-36
2023/06/05 09:37:37;;;;;;;0.30;0.30;;;21.60;62.60;;;21.91;46.20;95144.16;5096111;28;20221;-36
2023/06/05 09:40:07;;;;;;;0.38;0.38;;;21.70;62.60;;;21.93;46.17;95146.56;5096397;28;20179;-36
2023/06/05 09:42:35;;;;;;;0.30;0.30;;;21.60;62.60;;;21.94;46.52;95145.53;5096193;28;20198;-36
2023/06/05 09:45:04;;;;;;;0.30;0.30;;;21.60;63.50;;;21.94;46.35;95137.50;5095976;28;20198;-36
2023/06/05 09:47:31;;;;;;;0.40;0.40;;;21.60;62.60;;;21.95;46.79;95144.44;5095227;28;20199;-36
2023/06/05 09:50:27;;;;;;;0.50;0.50;;;21.60;62.50;;;21.95;46.21;95139.91;5081308;28;20218;-36
2023/06/05 09:52:56;;;;;;;0.47;0.47;;;21.70;62.70;;;21.95;46.11;95139.91;5095783;28;20291;-36
2023/06/05 09:55:25;;;;;;;0.40;0.40;;;21.70;62.70;;;21.96;46.36;95143.38;5095899;28;20201;-36
2023/06/05 09:57:54;;;;;;;0.38;0.38;;;21.60;62.70;;;21.96;46.68;95146.03;5095648;28;20216;-36
2023/06/05 10:00:21;;;;;;;0.50;0.50;;;21.70;62.70;;;21.95;46.43;95142.59;5078646;28;20194;-36
2023/06/05 10:02:50;;;;;;;0.30;0.30;;;21.70;62.70;;;21.96;46.73;95138.03;5095925;28;20498;-36
2023/06/05 10:05:18;;;;;;;0.38;0.38;;;21.70;62.70;;;21.95;46.86;95137.25;5095451;28;20289;-36
2023/06/05 10:07:45;;;;;;;0.40;0.40;;;21.70;62.70;;;21.96;46.61;95136.19;5095855;28;20207;-37
2023/06/05 10:10:13;;;;;;;0.40;0.40;;;21.70;62.70;;;21.97;46.51;95134.31;5094724;28;20219;-36
2023/06/05 10:12:40;;;;;;;0.40;0.40;;;21.70;62.80;;;21.97;46.46;95132.44;5078246;28;20199;-36
2023/06/05 10:15:09;;;;;;;0.50;0.50;;;21.70;62.80;;;21.99;46.90;95132.19;5095316;28;20281;-37
2023/06/05 10:17:41;;;;;;;0.40;0.40;;;21.70;62.80;;;21.98;46.90;95134.03;5095972;28;20626;-37
2023/06/05 10:20:09;;;;;;;0.40;0.40;;;21.70;62.80;;;21.99;46.65;95129.53;5078186;28;20266;-36
2023/06/05 10:22:43;;;;;;;0.40;0.40;;;21.70;62.80;;;21.99;46.51;95124.97;5078045;28;20589;-36
2023/06/05 10:25:12;;;;;;;0.40;0.40;;;21.70;62.90;;;22.00;46.77;95121.25;5094313;28;20214;-37
2023/06/05 10:27:45;;;;;;;0.30;0.30;;;21.70;62.80;;;22.01;46.87;95132.75;5077868;28;20228;-38
2023/06/05 10:30:55;;;;;;;0.40;0.40;;;21.70;62.90;;;22.00;46.80;95133.81;5095603;28;20271;-36